Time;durP1;ratioP1;P1;durP2;ratioP2;P2;SDS_P1;SDS_P2;PMS_P1;PMS_P2;Temp;Humidity;BMP_temperature;BMP_pressure;BME280_temperature;BME280_humidity;BME280_pressure;Samples;Min_cycle;Max_cycle;Signal;HPM_P1;HPM_P2
2021/10/07 00:00:47;;;;;;;0.73;0.45;;;;;;;-142.37;100.00;59669.53;4995471;28;20508;-70
2021/10/07 00:03:53;;;;;;;2.08;0.10;;;;;;;-142.37;100.00;59669.53;4995438;28;20046;-73
2021/10/07 00:06:21;;;;;;;0.30;0.20;;;;;;;-142.37;100.00;59669.53;4918476;29;20524;-72
2021/10/07 00:08:56;;;;;;;0.30;0.10;;;;;;;-142.37;100.00;59669.53;4968487;28;20043;-72
2021/10/07 00:11:22;;;;;;;0.15;0.10;;;;;;;-142.37;100.00;59669.53;4975666;28;20046;-70
2021/10/07 00:13:50;;;;;;;0.57;0.15;;;;;;;-142.37;100.00;59669.53;4975394;28;20030;-73
2021/10/07 00:16:16;;;;;;;0.25;0.10;;;;;;;-142.37;100.00;59669.53;4975829;28;20130;-71
2021/10/07 00:18:50;;;;;;;0.13;0.13;;;;;;;-142.37;100.00;59669.53;4976193;28;20054;-71
2021/10/07 00:21:19;;;;;;;0.80;0.15;;;;;;;-142.37;100.00;59669.53;4975579;28;20497;-70
2021/10/07 00:24:13;;;;;;;0.43;0.20;;;;;;;-142.37;100.00;59669.53;4975662;28;20076;-72
2021/10/07 00:26:41;;;;;;;0.22;0.20;;;;;;;-142.37;100.00;59669.53;4918235;29;20443;-73
2021/10/07 00:31:56;;;;;;;0.20;0.10;;;;;;;-142.37;100.00;59669.53;4917971;29;20506;-71
2021/10/07 00:39:53;;;;;;;0.85;0.45;;;;;;;-142.37;100.00;59669.53;4955992;29;20524;-71
2021/10/07 00:42:20;;;;;;;0.43;0.30;;;;;;;-142.37;100.00;59669.53;4956251;29;20032;-73
2021/10/07 00:44:47;;;;;;;0.43;0.10;;;;;;;-142.37;100.00;59669.53;4956034;29;20039;-70
2021/10/07 00:47:23;;;;;;;1.25;0.35;;;;;;;-142.37;100.00;59669.53;4956118;29;20031;-73
2021/10/07 00:49:48;;;;;;;0.30;0.20;;;;;;;-142.37;100.00;59669.53;4957502;29;20035;-72
2021/10/07 00:52:23;;;;;;;0.22;0.10;;;;;;;-142.37;100.00;59669.53;4955928;29;20042;-70
2021/10/07 00:54:55;;;;;;;1.10;0.38;;;;;;;-142.37;100.00;59669.53;4956195;29;20103;-70
2021/10/07 00:57:22;;;;;;;0.90;0.40;;;;;;;-142.37;100.00;59669.53;4955740;29;20122;-72
2021/10/07 00:59:48;;;;;;;0.88;0.30;;;;;;;-142.37;100.00;59669.53;4955882;29;20027;-72
2021/10/07 01:02:24;;;;;;;0.93;0.25;;;;;;;-142.37;100.00;59669.53;4966121;28;20436;-71
2021/10/07 01:04:49;;;;;;;0.65;0.20;;;;;;;-142.37;100.00;59669.53;5016101;28;20049;-71
2021/10/07 01:07:16;;;;;;;0.10;0.10;;;;;;;-142.37;100.00;59669.53;5014567;28;20100;-70
2021/10/07 01:09:44;;;;;;;0.73;0.20;;;;;;;-142.37;100.00;59669.53;5015854;28;20029;-72
2021/10/07 01:12:11;;;;;;;0.57;0.45;;;;;;;-142.37;100.00;59669.53;5015663;28;20056;-70
2021/10/07 01:14:48;;;;;;;0.47;0.20;;;;;;;-142.37;100.00;59669.53;5026137;28;20041;-72
2021/10/07 01:17:16;;;;;;;1.10;0.40;;;;;;;-142.37;100.00;59669.53;5037614;28;20468;-74
2021/10/07 01:19:43;;;;;;;0.47;0.20;;;;;;;-142.37;100.00;59669.53;5055394;28;20353;-71
2021/10/07 01:22:09;;;;;;;1.23;0.40;;;;;;;-142.37;100.00;59669.53;5055275;28;20032;-70
2021/10/07 01:24:36;;;;;;;0.20;0.20;;;;;;;-142.37;100.00;59669.53;5055515;28;20036;-72
2021/10/07 01:27:02;;;;;;;0.80;0.20;;;;;;;-142.37;100.00;59669.53;5049065;28;20097;-70
2021/10/07 01:29:40;;;;;;;0.15;0.10;;;;;;;-142.37;100.00;59669.53;5035297;28;20443;-74
2021/10/07 01:32:07;;;;;;;0.95;0.20;;;;;;;-142.37;100.00;59669.53;5035367;28;20053;-71
2021/10/07 01:34:44;;;;;;;0.17;0.10;;;;;;;-142.37;100.00;59669.53;5035039;28;20030;-72
2021/10/07 01:37:10;;;;;;;0.03;0.03;;;;;;;-142.37;100.00;59669.53;5035099;28;20025;-71
2021/10/07 01:39:35;;;;;;;0.38;0.22;;;;;;;-142.37;100.00;59669.53;5034941;28;20024;-70
2021/10/07 01:42:02;;;;;;;0.10;0.10;;;;;;;-142.37;100.00;59669.53;5034306;28;20485;-72
2021/10/07 01:44:29;;;;;;;0.20;0.20;;;;;;;-142.37;100.00;59669.53;5034986;28;20084;-70
2021/10/07 01:46:56;;;;;;;0.55;0.15;;;;;;;-142.37;100.00;59669.53;5034978;28;20021;-73
2021/10/07 01:49:23;;;;;;;0.52;0.30;;;;;;;-142.37;100.00;59669.53;5034914;28;20029;-70
2021/10/07 01:51:52;;;;;;;0.70;0.20;;;;;;;-142.37;100.00;59669.53;5034820;28;20021;-72
2021/10/07 01:54:23;;;;;;;1.75;0.10;;;;;;;-142.37;100.00;59669.53;5035015;28;20025;-71
2021/10/07 01:56:51;;;;;;;0.65;0.40;;;;;;;-142.37;100.00;59669.53;5017253;28;20022;-70
2021/10/07 01:59:17;;;;;;;0.40;0.15;;;;;;;-142.37;100.00;59669.53;5034605;28;20380;-72
2021/10/07 02:01:52;;;;;;;0.13;0.13;;;;;;;;;;5071266;28;20380;-69
2021/10/07 02:04:17;;;;;;;0.35;0.10;;;;;;;;;;5071130;28;20127;-73
2021/10/07 02:06:42;;;;;;;0.22;0.20;;;;;;;;;;5071367;28;20027;-70
2021/10/07 02:09:09;;;;;;;0.65;0.20;;;;;;;;;;5071001;28;20020;-72
2021/10/07 02:11:44;;;;;;;0.57;0.20;;;;;;;;;;5071060;28;20035;-71
2021/10/07 02:14:09;;;;;;;;;;;;;;;;;;5071246;28;20095;-69
2021/10/07 02:16:35;;;;;;;0.20;0.17;;;;;;;;;;5069619;28;19991;-72
2021/10/07 02:19:02;;;;;;;0.80;0.10;;;;;;;;;;5070984;28;20020;-70
2021/10/07 02:21:28;;;;;;;0.32;0.20;;;;;;;;;;5070469;28;20027;-72
2021/10/07 02:24:25;;;;;;;0.30;0.28;;;;;;;;;;5070823;28;20021;-71
2021/10/07 02:26:53;;;;;;;0.70;0.28;;;;;;;;;;5048635;28;20564;-75
2021/10/07 02:29:18;;;;;;;0.22;0.03;;;;;;;;;;5048485;28;20480;-71
2021/10/07 02:31:44;;;;;;;0.55;0.13;;;;;;;;;;5048494;28;20042;-70
2021/10/07 02:34:09;;;;;;;0.32;0.10;;;;;;;;;;5048661;28;20025;-72
2021/10/07 02:36:35;;;;;;;0.20;0.10;;;;;;;;;;5048630;28;20037;-71
2021/10/07 02:39:00;;;;;;;0.45;0.40;;;;;;;;;;5048642;28;20018;-73
2021/10/07 02:41:35;;;;;;;0.10;0.10;;;;;;;;;;5048241;28;20021;-70
2021/10/07 02:44:03;;;;;;;0.55;0.20;;;;;;;;;;5048358;28;20029;-74
2021/10/07 02:46:30;;;;;;;1.55;0.25;;;;;;;;;;5048037;28;20147;-72
2021/10/07 02:48:55;;;;;;;0.63;0.20;;;;;;;;;;5048053;28;20032;-70
2021/10/07 02:51:29;;;;;;;0.10;0.10;;;;;;;;;;5048179;28;20034;-71
2021/10/07 02:54:03;;;;;;;0.20;0.20;;;;;;;;;;5048107;28;20254;-72
2021/10/07 02:56:30;;;;;;;1.38;0.15;;;;;;;;;;5031671;28;20424;-71
2021/10/07 02:58:55;;;;;;;1.33;0.35;;;;;;;;;;5047856;28;20029;-70
2021/10/07 03:01:20;;;;;;;1.08;0.10;;;;;;;;;;5047896;28;20518;-72
2021/10/07 03:03:46;;;;;;;1.17;0.25;;;;;;;;;;5063866;28;20092;-70
2021/10/07 03:06:20;;;;;;;0.28;0.10;;;;;;;;;;5069882;28;20028;-73
2021/10/07 03:08:45;;;;;;;0.10;0.10;;;;;;;;;;5069750;28;20021;-70
2021/10/07 03:11:10;;;;;;;0.20;0.08;;;;;;;;;;5067693;28;20073;-73
2021/10/07 03:13:36;;;;;;;0.90;0.00;;;;;;;;;;5056606;28;20025;-71
2021/10/07 03:16:02;;;;;;;0.57;0.10;;;;;;;;;;5056418;28;20472;-71
2021/10/07 03:18:36;;;;;;;0.75;0.30;;;;;;;;;;5056518;28;20065;-72
2021/10/07 03:21:01;;;;;;;0.32;0.00;;;;;;;;;;5056403;28;20033;-69
2021/10/07 03:23:27;;;;;;;0.73;0.20;;;;;;;;;;5056568;28;20097;-73
2021/10/07 03:25:54;;;;;;;0.75;0.20;;;;;;;;;;5055165;28;20411;-72
2021/10/07 03:28:20;;;;;;;0.47;0.17;;;;;;;;;;5056384;28;20434;-73
2021/10/07 03:30:45;;;;;;;0.30;0.10;;;;;;;;;;5055299;28;20025;-72
2021/10/07 03:33:10;;;;;;;0.40;0.30;;;;;;;;;;5056005;28;20524;-70
2021/10/07 03:35:37;;;;;;;1.08;0.25;;;;;;;;;;5056168;28;20423;-72
2021/10/07 03:38:11;;;;;;;0.22;0.15;;;;;;;;;;5056382;28;20021;-70
2021/10/07 03:40:45;;;;;;;0.10;0.10;;;;;;;;;;5056063;28;20060;-71
2021/10/07 03:43:10;;;;;;;0.45;0.20;;;;;;;;;;5056023;28;20071;-69
2021/10/07 03:46:09;;;;;;;0.13;0.10;;;;;;;;;;5055993;28;20017;-72
2021/10/07 03:48:36;;;;;;;0.35;0.10;;;;;;;;;;5034260;28;20030;-73
2021/10/07 03:51:02;;;;;;;0.20;0.20;;;;;;;;;;5033886;28;20112;-70
2021/10/07 03:53:28;;;;;;;0.80;0.28;;;;;;;;;;5033690;28;20128;-72
2021/10/07 03:55:54;;;;;;;0.45;0.20;;;;;;;;;;5034136;28;20053;-72
2021/10/07 03:58:21;;;;;;;0.20;0.10;;;;;;;;;;5033667;28;20171;-70
2021/10/07 04:00:46;;;;;;;0.25;0.13;;;;;;;;;;5033523;28;20049;-73
2021/10/07 04:03:12;;;;;;;0.75;0.20;;;;;;;;;;5033387;28;20025;-70
2021/10/07 04:05:39;;;;;;;0.20;0.10;;;;;;;;;;5034016;28;20424;-72
2021/10/07 04:08:07;;;;;;;0.57;0.20;;;;;;;;;;5033984;28;20017;-72
2021/10/07 04:10:32;;;;;;;0.45;0.28;;;;;;;;;;5033520;28;20095;-70
2021/10/07 04:12:59;;;;;;;0.57;0.10;;;;;;;;;;5033712;28;20528;-72
2021/10/07 04:15:24;;;;;;;0.13;0.08;;;;;;;;;;5033511;28;20168;-71
2021/10/07 04:17:51;;;;;;;0.10;0.10;;;;;;;;;;5033446;28;20116;-74
2021/10/07 04:20:18;;;;;;;1.45;0.45;;;;;;;;;;5033261;28;20021;-70
2021/10/07 04:22:44;;;;;;;0.47;0.10;;;;;;;;;;5033149;28;20024;-73
2021/10/07 04:25:15;;;;;;;0.20;0.20;;;;;;;;;;5052812;28;20056;-71
2021/10/07 04:27:42;;;;;;;0.85;0.10;;;;;;;;;;5055246;28;20100;-71
2021/10/07 04:30:08;;;;;;;0.20;0.10;;;;;;;;;;5055354;28;20017;-73
2021/10/07 04:33:04;;;;;;;0.20;0.10;;;;;;;;;;5055060;28;20071;-70
2021/10/07 04:35:31;;;;;;;0.08;0.08;;;;;;;;;;5033093;28;20087;-72
2021/10/07 04:37:59;;;;;;;0.10;0.10;;;;;;;;;;5033218;28;20476;-71
2021/10/07 04:40:27;;;;;;;0.55;0.47;;;;;;;;;;5033200;28;20111;-73
2021/10/07 04:42:52;;;;;;;0.40;0.10;;;;;;;;;;5033085;28;20421;-71
2021/10/07 04:45:19;;;;;;;0.50;0.20;;;;;;;;;;5032706;28;20044;-72
2021/10/07 04:47:46;;;;;;;2.95;0.10;;;;;;;;;;5032939;28;20092;-73
2021/10/07 04:50:12;;;;;;;1.00;0.10;;;;;;;;;;5032799;28;20029;-72
2021/10/07 04:52:39;;;;;;;0.15;0.15;;;;;;;;;;5033021;28;20039;-73
2021/10/07 04:55:06;;;;;;;0.10;0.10;;;;;;;;;;5032775;28;20084;-72
2021/10/07 04:57:57;;;;;;;0.10;0.10;;;;;;;;;;5032850;28;20021;-73
2021/10/07 05:00:23;;;;;;;0.35;0.30;;;;;;;;;;5028789;28;20127;-71
2021/10/07 05:02:48;;;;;;;0.60;0.10;;;;;;;;;;5032776;28;20056;-72
2021/10/07 05:05:14;;;;;;;0.17;0.00;;;;;;;;;;5032640;28;20277;-72
2021/10/07 05:07:39;;;;;;;0.10;0.00;;;;;;;;;;5032846;28;20265;-71
2021/10/07 05:10:06;;;;;;;0.30;0.30;;;;;;;;;;5032661;28;20025;-73
2021/10/07 05:12:32;;;;;;;0.43;0.10;;;;;;;;;;5050812;28;20029;-73
2021/10/07 05:14:59;;;;;;;0.52;0.08;;;;;;;;;;5054578;28;20475;-71
2021/10/07 05:17:26;;;;;;;0.30;0.15;;;;;;;;;;5054400;28;20515;-72
2021/10/07 05:19:53;;;;;;;0.65;0.35;;;;;;;;;;5054482;28;20048;-72
2021/10/07 05:22:18;;;;;;;0.35;0.30;;;;;;;;;;5054378;28;20088;-73
2021/10/07 05:24:44;;;;;;;0.10;0.10;;;;;;;;;;5054400;28;20013;-71
2021/10/07 05:27:13;;;;;;;0.82;0.20;;;;;;;;;;5054109;28;20097;-73
2021/10/07 05:29:57;;;;;;;0.20;0.10;;;;;;;;;;5054256;28;20051;-72
2021/10/07 05:32:41;;;;;;;0.20;0.10;;;;;;;;;;5054116;28;20024;-74
2021/10/07 05:35:07;;;;;;;0.10;0.10;;;;;;;;;;5053981;28;20029;-70
2021/10/07 05:37:42;;;;;;;0.43;0.30;;;;;;;;;;5054227;28;20009;-74
2021/10/07 05:40:08;;;;;;;0.60;0.32;;;;;;;;;;5053979;28;20376;-72
2021/10/07 05:42:36;;;;;;;0.30;0.10;;;;;;;;;;5052805;28;20017;-73
2021/10/07 05:45:03;;;;;;;0.10;0.10;;;;;;;;;;5052874;28;20099;-71
2021/10/07 05:47:28;;;;;;;0.65;0.00;;;;;;;;;;5053894;28;20017;-74
2021/10/07 05:49:53;;;;;;;0.10;0.10;;;;;;;;;;5054109;28;20021;-72
2021/10/07 05:52:30;;;;;;;0.10;0.00;;;;;;;;;;5052627;28;20021;-71
2021/10/07 05:55:09;;;;;;;0.20;0.20;;;;;;;;;;5054020;28;20021;-72
2021/10/07 05:57:40;;;;;;;0.00;0.00;;;;;;;;;;5054098;28;20021;-75
2021/10/07 06:00:06;;;;;;;0.15;0.10;;;;;;;;;;5052854;28;20021;-71
2021/10/07 06:02:34;;;;;;;0.10;0.10;;;;;;;;;;5052619;28;20032;-71
2021/10/07 06:05:01;;;;;;;0.20;0.15;;;;;;;;;;5053850;28;20021;-72
2021/10/07 06:07:46;;;;;;;0.20;0.08;;;;;;;;;;5053736;28;20021;-73
2021/10/07 06:10:14;;;;;;;0.30;0.20;;;;;;;;;;5053749;28;20021;-72
2021/10/07 06:13:07;;;;;;;0.17;0.00;;;;;;;;;;5053786;28;20017;-72
2021/10/07 06:15:41;;;;;;;0.22;0.10;;;;;;;;;;5052556;28;20030;-72
2021/10/07 06:18:16;;;;;;;0.28;0.15;;;;;;;;;;5053780;28;20104;-74
2021/10/07 06:20:42;;;;;;;0.10;0.10;;;;;;;;;;5053539;28;20036;-72
2021/10/07 06:23:09;;;;;;;0.20;0.10;;;;;;;;;;5053816;28;20040;-73
2021/10/07 06:25:36;;;;;;;0.55;0.38;;;;;;;;;;5053693;28;20017;-73
2021/10/07 06:28:02;;;;;;;1.65;0.20;;;;;;;;;;5053727;28;20067;-75
2021/10/07 06:30:29;;;;;;;0.43;0.10;;;;;;;;;;5053542;28;20021;-72
2021/10/07 06:32:57;;;;;;;0.17;0.10;;;;;;;;;;5052436;28;20021;-74
2021/10/07 06:35:24;;;;;;;0.35;0.10;;;;;;;;;;5053487;28;20021;-72
2021/10/07 06:37:51;;;;;;;0.40;0.32;;;;;;;;;;5053692;28;20025;-75
2021/10/07 06:40:18;;;;;;;0.82;0.10;;;;;;;;;;5052469;28;20349;-72
2021/10/07 06:42:50;;;;;;;0.10;0.10;;;;;;;;;;5052276;28;20075;-73
2021/10/07 06:45:17;;;;;;;1.08;0.28;;;;;;;;;;5052201;28;20017;-73
2021/10/07 06:47:51;;;;;;;0.10;0.10;;;;;;;;;;5055919;28;20025;-71
2021/10/07 06:50:18;;;;;;;0.25;0.10;;;;;;;;;;5057269;28;20092;-74
2021/10/07 06:52:43;;;;;;;1.85;0.13;;;;;;;;;;5057079;28;20538;-71
2021/10/07 06:55:10;;;;;;;0.20;0.00;;;;;;;;;;5057215;28;20104;-74
2021/10/07 06:57:44;;;;;;;0.05;0.05;;;;;;;;;;5056948;28;20025;-72
2021/10/07 07:00:15;;;;;;;0.73;0.20;;;;;;;;;;5053455;28;20017;-75
2021/10/07 07:02:41;;;;;;;0.20;0.20;;;;;;;;;;5057005;28;20048;-72
2021/10/07 07:05:15;;;;;;;0.35;0.15;;;;;;;;;;5057074;28;20023;-73
2021/10/07 07:07:49;;;;;;;0.17;0.17;;;;;;;;;;5056809;28;20013;-71
2021/10/07 07:10:18;;;;;;;0.00;0.00;;;;;;;;;;5056596;28;20035;-74
2021/10/07 07:12:53;;;;;;;0.10;0.10;;;;;;;;;;5055588;28;20360;-72
2021/10/07 07:15:20;;;;;;;0.45;0.20;;;;;;;;;;5056758;28;20027;-75
2021/10/07 07:17:46;;;;;;;0.00;0.00;;;;;;;;;;5056715;28;20531;-71
2021/10/07 07:20:36;;;;;;;0.10;0.00;;;;;;;;;;5056418;28;20108;-72
2021/10/07 07:23:06;;;;;;;0.30;0.13;;;;;;;;;;5056714;28;20017;-73
2021/10/07 07:25:31;;;;;;;0.45;0.00;;;;;;;;;;5056489;28;20032;-72
2021/10/07 07:28:26;;;;;;;0.75;0.35;;;;;;;;;;5056668;28;20020;-72
2021/10/07 07:31:08;;;;;;;1.25;0.00;;;;;;;;;;5034506;28;20033;-74
2021/10/07 07:33:45;;;;;;;0.65;0.10;;;;;;;;;;5017833;28;20432;-72
2021/10/07 07:36:30;;;;;;;0.38;0.17;;;;;;;;;;5034261;28;20036;-75
2021/10/07 07:39:08;;;;;;;;;;;;;;;;;;4998814;28;20022;-72
2021/10/07 07:41:50;;;;;;;0.10;0.03;;;;;;;;;;5014499;28;20292;-76
2021/10/07 07:44:40;;;;;;;0.57;0.30;;;;;;;;;;5014411;28;20461;-72
2021/10/07 07:47:07;;;;;;;0.70;0.20;;;;;;;;;;5014496;28;20038;-74
2021/10/07 07:49:32;;;;;;;0.82;0.43;;;;;;;;;;5014329;28;20553;-71
2021/10/07 07:51:59;;;;;;;0.30;0.00;;;;;;;;;;5014400;28;20049;-73
2021/10/07 07:54:25;;;;;;;0.10;0.00;;;;;;;;;;5014507;28;20032;-73
2021/10/07 07:56:51;;;;;;;0.20;0.10;;;;;;;;;;4997731;28;20022;-72
2021/10/07 07:59:18;;;;;;;0.13;0.10;;;;;;;;;;5014173;28;20026;-75
2021/10/07 08:01:44;;;;;;;0.40;0.03;;;;;;;;;;5013767;28;20052;-72
2021/10/07 08:04:24;;;;;;;0.00;0.00;;;;;;;;;;5014219;28;20093;-72
2021/10/07 08:06:49;;;;;;;0.30;0.10;;;;;;;;;;5021057;28;20499;-73
2021/10/07 08:09:14;;;;;;;1.17;0.20;;;;;;;;;;5036288;28;20148;-71
2021/10/07 08:11:53;;;;;;;0.10;0.10;;;;;;;;;;5035923;28;20112;-74
2021/10/07 08:14:33;;;;;;;0.10;0.10;;;;;;;;;;5035833;28;20345;-72
2021/10/07 08:17:01;;;;;;;0.00;0.00;;;;;;;;;;5035927;28;20361;-74
2021/10/07 08:19:26;;;;;;;0.10;0.10;;;;;;;;;;5035808;28;20022;-71
2021/10/07 08:22:05;;;;;;;0.10;0.10;;;;;;;;;;5035668;28;20345;-74
2021/10/07 08:24:32;;;;;;;0.38;0.00;;;;;;;;;;5035651;28;20029;-72
2021/10/07 08:26:59;;;;;;;0.50;0.00;;;;;;;;;;5034268;28;20020;-73
2021/10/07 08:29:27;;;;;;;0.70;0.08;;;;;;;;;;5035518;28;20397;-73
2021/10/07 08:31:53;;;;;;;0.80;0.20;;;;;;;;;;5035385;28;20029;-71
2021/10/07 08:34:27;;;;;;;1.08;0.30;;;;;;;;;;5035341;28;20108;-75
2021/10/07 08:36:53;;;;;;;;;;;;;;;;;;5035883;28;20368;-71
2021/10/07 08:39:25;;;;;;;0.20;0.00;;;;;;;;;;5034069;28;19905;-75
2021/10/07 08:41:53;;;;;;;0.38;0.10;;;;;;;;;;5035325;28;20021;-72
2021/10/07 08:44:28;;;;;;;0.93;0.10;;;;;;;;;;5035284;28;20044;-75
2021/10/07 08:46:54;;;;;;;0.20;0.10;;;;;;;;;;5035147;28;20013;-70
2021/10/07 08:49:35;;;;;;;0.10;0.10;;;;;;;;;;5035018;28;20064;-75
2021/10/07 08:52:01;;;;;;;0.45;0.15;;;;;;;;;;5035155;28;20017;-72
2021/10/07 08:54:46;;;;;;;1.00;0.10;;;;;;;;;;5035015;28;20053;-76
2021/10/07 08:57:14;;;;;;;0.20;0.20;;;;;;;;;;5059127;28;20024;-71
2021/10/07 08:59:40;;;;;;;0.28;0.10;;;;;;;;;;5074552;28;20066;-74
2021/10/07 09:02:22;;;;;;;0.85;0.22;;;;;;;;;;5073030;28;20073;-73
2021/10/07 09:05:06;;;;;;;0.35;0.10;;;;;;;;;;5074391;28;20074;-70
2021/10/07 09:07:33;;;;;;;0.43;0.10;;;;;;;;;;5074418;28;20095;-71
2021/10/07 09:09:58;;;;;;;0.80;0.20;;;;;;;;;;5073949;28;20503;-68
2021/10/07 09:12:29;;;;;;;0.38;0.10;;;;;;;;;;5074237;28;20108;-72
2021/10/07 09:15:11;;;;;;;0.85;0.38;;;;;;;;;;5073231;28;20016;-71
2021/10/07 09:17:37;;;;;;;0.98;0.20;;;;;;;;;;5074312;28;20020;-72
2021/10/07 09:20:04;;;;;;;0.10;0.10;;;;;;;;;;5072920;28;20028;-72
2021/10/07 09:22:35;;;;;;;0.05;0.00;;;;;;;;;;5074357;28;20068;-73
2021/10/07 09:25:09;;;;;;;0.30;0.30;;;;;;;;;;5074157;28;20013;-70
2021/10/07 09:27:36;;;;;;;0.50;0.13;;;;;;;;;;5067143;28;20525;-74
2021/10/07 09:30:02;;;;;;;0.13;0.10;;;;;;;;;;5054327;28;20033;-71
2021/10/07 09:32:28;;;;;;;0.17;0.10;;;;;;;;;;5054028;28;20045;-75
2021/10/07 09:34:56;;;;;;;0.60;0.10;;;;;;;;;;5054407;28;20053;-72
2021/10/07 09:37:36;;;;;;;0.25;0.08;;;;;;;;;;5054149;28;20024;-74
2021/10/07 09:40:02;;;;;;;0.30;0.10;;;;;;;;;;5053896;28;20032;-71
2021/10/07 09:43:00;;;;;;;0.32;0.00;;;;;;;;;;5054065;28;20017;-75
2021/10/07 09:45:31;;;;;;;0.10;0.10;;;;;;;;;;5031935;28;20033;-71
2021/10/07 09:48:01;;;;;;;0.75;0.20;;;;;;;;;;5032296;28;20579;-74
2021/10/07 09:50:45;;;;;;;0.03;0.03;;;;;;;;;;5031846;28;20032;-71
2021/10/07 09:53:18;;;;;;;0.13;0.03;;;;;;;;;;5031991;28;20079;-73
2021/10/07 09:55:52;;;;;;;0.20;0.08;;;;;;;;;;5032148;28;20527;-71
2021/10/07 09:58:20;;;;;;;0.98;0.15;;;;;;;;;;5031909;28;20056;-72
2021/10/07 10:00:46;;;;;;;0.30;0.00;;;;;;;;;;5031447;28;20085;-70
2021/10/07 10:03:12;;;;;;;0.43;0.15;;;;;;;;;;5015607;28;20107;-74
2021/10/07 10:05:39;;;;;;;0.47;0.10;;;;;;;;;;5031630;28;20515;-72
2021/10/07 10:08:05;;;;;;;0.25;0.20;;;;;;;;;;5031694;28;20029;-71
2021/10/07 10:10:31;;;;;;;0.85;0.10;;;;;;;;;;5031800;28;20021;-73
2021/10/07 10:12:58;;;;;;;0.30;0.10;;;;;;;;;;5031821;28;20021;-71
2021/10/07 10:15:25;;;;;;;0.28;0.15;;;;;;;;;;5031700;28;20104;-75
2021/10/07 10:17:51;;;;;;;0.13;0.05;;;;;;;;;;5031640;28;20025;-70
2021/10/07 10:20:22;;;;;;;0.70;0.00;;;;;;;;;;5035759;28;20029;-70
2021/10/07 10:22:51;;;;;;;0.10;0.08;;;;;;;;;;5056211;28;20459;-71
2021/10/07 10:25:17;;;;;;;1.65;0.20;;;;;;;;;;5057469;28;20021;-70
2021/10/07 10:27:51;;;;;;;0.10;0.00;;;;;;;;;;5056393;28;20058;-73
2021/10/07 10:30:23;;;;;;;0.75;0.10;;;;;;;;;;5057384;28;20380;-69
2021/10/07 10:32:53;;;;;;;0.10;0.10;;;;;;;;;;5057393;28;20028;-73
2021/10/07 10:35:29;;;;;;;0.15;0.15;;;;;;;;;;5057416;28;20026;-71
2021/10/07 10:37:55;;;;;;;1.45;0.10;;;;;;;;;;5057030;28;20363;-72
2021/10/07 10:40:21;;;;;;;0.25;0.25;;;;;;;;;;5055843;28;20021;-70
2021/10/07 10:43:15;;;;;;;0.77;0.10;;;;;;;;;;5056185;28;20025;-74
2021/10/07 10:46:00;;;;;;;0.05;0.05;;;;;;;;;;5054864;28;20036;-74
2021/10/07 10:48:44;;;;;;;0.52;0.10;;;;;;;;;;5056872;28;20017;-70
2021/10/07 10:51:14;;;;;;;0.20;0.10;;;;;;;;;;5057228;28;20028;-73
2021/10/07 10:53:50;;;;;;;0.15;0.10;;;;;;;;;;5056915;28;20025;-70
2021/10/07 10:56:17;;;;;;;0.10;0.10;;;;;;;;;;5057087;28;20084;-74
2021/10/07 10:58:51;;;;;;;0.00;0.00;;;;;;;;;;5055839;28;20058;-71
2021/10/07 11:01:17;;;;;;;0.00;0.00;;;;;;;;;;5056088;28;20049;-74
2021/10/07 11:03:42;;;;;;;0.30;0.20;;;;;;;;;;5056866;28;20479;-71
2021/10/07 11:06:11;;;;;;;1.73;0.10;;;;;;;;;;5056929;28;20021;-70
2021/10/07 11:08:43;;;;;;;0.10;0.00;;;;;;;;;;5057070;28;20329;-72
2021/10/07 11:11:35;;;;;;;0.20;0.10;;;;;;;;;;5056767;28;20108;-71
2021/10/07 11:14:01;;;;;;;0.30;0.10;;;;;;;;;;5056671;28;20402;-70
2021/10/07 11:16:29;;;;;;;0.20;0.10;;;;;;;;;;5056593;28;20079;-73
2021/10/07 11:18:55;;;;;;;0.57;0.20;;;;;;;;;;5056677;28;20013;-71
2021/10/07 11:21:25;;;;;;;0.10;0.00;;;;;;;;;;5055027;28;20407;-70
2021/10/07 11:23:59;;;;;;;0.50;0.17;;;;;;;;;;5056640;28;20047;-72
2021/10/07 11:26:25;;;;;;;;;;;;;;;;;;5055657;28;20053;-71
2021/10/07 11:28:52;;;;;;;0.10;0.10;;;;;;;;;;5056596;28;19939;-74
2021/10/07 11:31:19;;;;;;;0.73;0.30;;;;;;;;;;5053302;28;20100;-71
2021/10/07 11:33:49;;;;;;;0.30;0.20;;;;;;;;;;5055844;28;20013;-71
2021/10/07 11:36:34;;;;;;;0.63;0.20;;;;;;;;;;5049050;28;20018;-74
2021/10/07 11:39:09;;;;;;;0.35;0.10;;;;;;;;;;5053705;28;20498;-71
2021/10/07 11:41:35;;;;;;;;;;;;;;;;;;5055169;28;20056;-72
2021/10/07 11:44:07;;;;;;;0.20;0.10;;;;;;;;;;5055778;28;19905;-71
2021/10/07 11:46:41;;;;;;;0.30;0.10;;;;;;;;;;5050591;28;20067;-74
2021/10/07 11:49:08;;;;;;;0.80;0.13;;;;;;;;;;5045136;28;20087;-71
2021/10/07 11:51:43;;;;;;;0.60;0.28;;;;;;;;;;5036306;28;20049;-73
2021/10/07 11:54:08;;;;;;;0.03;0.03;;;;;;;;;;5047462;28;20048;-72
2021/10/07 11:56:35;;;;;;;0.77;0.00;;;;;;;;;;5038404;28;20049;-74
2021/10/07 11:59:02;;;;;;;0.55;0.13;;;;;;;;;;5036127;28;20026;-71
2021/10/07 12:01:31;;;;;;;0.20;0.10;;;;;;;;;;5042386;28;20080;-74
2021/10/07 12:03:59;;;;;;;0.70;0.30;;;;;;;;;;5043854;28;20018;-72
2021/10/07 12:06:26;;;;;;;0.80;0.10;;;;;;;;;;5035651;28;20013;-71
2021/10/07 12:08:51;;;;;;;0.65;0.20;;;;;;;;;;5042383;28;20112;-69
2021/10/07 12:11:21;;;;;;;0.17;0.10;;;;;;;;;;5035257;28;20072;-68
2021/10/07 12:13:52;;;;;;;0.10;0.10;;;;;;;;;;5036136;28;20032;-70
2021/10/07 12:16:29;;;;;;;0.20;0.10;;;;;;;;;;5035972;28;20508;-69
2021/10/07 12:19:04;;;;;;;0.25;0.10;;;;;;;;;;5047104;28;20037;-71
2021/10/07 12:21:39;;;;;;;0.38;0.00;;;;;;;;;;5036748;28;20515;-68
2021/10/07 12:24:06;;;;;;;0.50;0.30;;;;;;;;;;5055961;28;20060;-70
2021/10/07 12:26:36;;;;;;;0.28;0.10;;;;;;;;;;5033662;28;20445;-68
2021/10/07 12:29:08;;;;;;;0.10;0.00;;;;;;;;;;5041702;28;20021;-70
2021/10/07 12:31:34;;;;;;;0.38;0.10;;;;;;;;;;5054692;28;20436;-69
2021/10/07 12:34:10;;;;;;;0.40;0.10;;;;;;;;;;5054846;28;20025;-72
2021/10/07 12:36:39;;;;;;;0.75;0.28;;;;;;;;;;5053256;28;20017;-69
2021/10/07 12:39:19;;;;;;;0.43;0.10;;;;;;;;;;5046336;28;20366;-69
2021/10/07 12:41:44;;;;;;;1.05;0.10;;;;;;;;;;5037608;28;20058;-69
2021/10/07 12:44:16;;;;;;;0.40;0.10;;;;;;;;;;5038608;28;20100;-70
2021/10/07 12:46:53;;;;;;;0.20;0.20;;;;;;;;;;5041333;28;20040;-69
2021/10/07 12:49:39;;;;;;;0.55;0.05;;;;;;;;;;5052465;28;20028;-71
2021/10/07 12:52:30;;;;;;;0.20;0.20;;;;;;;;;;5042136;28;20087;-69
2021/10/07 12:55:04;;;;;;;0.00;0.00;;;;;;;;;;5033375;28;20030;-69
2021/10/07 12:57:33;;;;;;;0.20;0.17;;;;;;;;;;5047554;28;20040;-69
2021/10/07 12:59:59;;;;;;;0.35;0.10;;;;;;;;;;5048680;28;20044;-72
2021/10/07 13:02:28;;;;;;;0.30;0.10;;;;;;;;;;5036279;28;20618;-69
2021/10/07 13:04:53;;;;;;;0.15;0.10;;;;;;;;;;5041739;28;20027;-72
2021/10/07 13:07:23;;;;;;;0.43;0.10;;;;;;;;;;5052505;28;20392;-70
2021/10/07 13:09:55;;;;;;;0.40;0.10;;;;;;;;;;5040040;28;20301;-69
2021/10/07 13:12:21;;;;;;;0.20;0.10;;;;;;;;;;5039331;28;20013;-69
2021/10/07 13:14:56;;;;;;;0.13;0.10;;;;;;;;;;5044891;28;20058;-69
2021/10/07 13:17:21;;;;;;;0.10;0.00;;;;;;;;;;5063434;28;20024;-70
2021/10/07 13:19:48;;;;;;;0.30;0.10;;;;;;;;;;5056455;28;20024;-69
2021/10/07 13:22:13;;;;;;;0.40;0.10;;;;;;;;;;5053974;28;20029;-71
2021/10/07 13:24:38;;;;;;;0.85;0.10;;;;;;;;;;5053177;28;20025;-69
2021/10/07 13:27:09;;;;;;;0.43;0.03;;;;;;;;;;5053926;28;20016;-72
2021/10/07 13:29:37;;;;;;;0.30;0.30;;;;;;;;;;5041674;28;20753;-70
2021/10/07 13:32:17;;;;;;;0.10;0.10;;;;;;;;;;5040698;28;20029;-73
2021/10/07 13:34:43;;;;;;;0.13;0.10;;;;;;;;;;5053869;28;20025;-69
2021/10/07 13:37:10;;;;;;;0.68;0.32;;;;;;;;;;5045540;28;20478;-69
2021/10/07 13:39:35;;;;;;;0.30;0.20;;;;;;;;;;5053799;28;20070;-72
2021/10/07 13:42:01;;;;;;;0.20;0.13;;;;;;;;;;5053460;28;20446;-68
2021/10/07 13:44:35;;;;;;;0.68;0.10;;;;;;;;;;5049850;28;20262;-73
2021/10/07 13:47:01;;;;;;;0.52;0.10;;;;;;;;;;5042110;28;20025;-70
2021/10/07 13:49:27;;;;;;;0.32;0.10;;;;;;;;;;5033947;28;20029;-70
2021/10/07 13:51:52;;;;;;;0.28;0.10;;;;;;;;;;5034728;28;20033;-70
2021/10/07 13:54:17;;;;;;;0.00;0.00;;;;;;;;;;5044801;28;20032;-69
2021/10/07 13:56:52;;;;;;;0.20;0.17;;;;;;;;;;5048134;28;20028;-73
2021/10/07 13:59:26;;;;;;;0.10;0.10;;;;;;;;;;5037676;28;20025;-70
2021/10/07 14:01:51;;;;;;;0.20;0.10;;;;;;;;;;5043565;28;20041;-71
2021/10/07 14:04:16;;;;;;;0.50;0.20;;;;;;;;;;5033855;28;20028;-70
2021/10/07 14:06:41;;;;;;;0.17;0.10;;;;;;;;;;5073113;28;20063;-69
2021/10/07 14:09:07;;;;;;;0.10;0.10;;;;;;;;;;5065351;28;20024;-74
2021/10/07 14:11:34;;;;;;;0.28;0.10;;;;;;;;;;5051045;28;20258;-69
2021/10/07 14:13:59;;;;;;;1.00;0.05;;;;;;;;;;5038604;28;20021;-68
2021/10/07 14:16:25;;;;;;;0.03;0.03;;;;;;;;;;5033453;28;20029;-69
2021/10/07 14:18:50;;;;;;;0.32;0.10;;;;;;;;;;5052749;28;20060;-68
2021/10/07 14:21:16;;;;;;;0.20;0.10;;;;;;;;;;5052712;28;20106;-71
2021/10/07 14:23:47;;;;;;;0.10;0.03;;;;;;;;;;5049980;28;20136;-69
2021/10/07 14:26:12;;;;;;;0.30;0.20;;;;;;;;;;5034354;28;20017;-68
2021/10/07 14:28:37;;;;;;;0.95;0.10;;;;;;;;;;5034020;28;20483;-69
2021/10/07 14:31:03;;;;;;;1.10;0.20;;;;;;;;;;5038259;28;20029;-68
2021/10/07 14:33:29;;;;;;;0.52;0.20;;;;;;;;;;5039200;28;20799;-71